world map with GRX marked

GRX - Airport

This information may not be accurate or current and is not valid for navigation or flight planning. No warranty of fitness for any purpose is made or implied.

flag of Andalusiaflag of Spain

Donate via PayPal

Additional information is available on the NEW Great Circle Mapper

Location
City:  Granada, Andalusia, Spain
Name:Federico García Lorca Granada-Jaén Airport
ICAO / IATA:LEGR / GRX

Details
Type:Airport (Aerodrome, Airfield)
Use:Public/Civil
Latitude:37°11'19"N (37.188731)
Longitude:3°46'38"W (-3.777355)
Datum:WGS 1984
Elevation:1860 ft (567 m)
Runways:1
Longest:9514 × 148 ft (2900 × 45 m)

Time
Timezone:UTC+1 (DST+4)
Local Time:

Weather
METAR:LEGR  041400Z VRB01KT CAVOK 13/M01 Q1027
TAF:LEGR  040800Z 0409/0509 VRB03KT CAVOK TX14/0415Z TN00/0409Z

Related Locations
Nearby:
Farthest:NZWV: 12428 mi / 20001 km
Waihi Beach, BOP, NZ

Find:

   beyond  
but within

Other Information
Maps:
Sources:

  


 


Great Circle Mapper   Great Circle Mapper
Great Circle Mapper FAQ   Great Circle Mapper FAQ
  Karl's Home Page
KLS²   KLS² Home
   GC on Facebook
Airlines of the World   Airlines of the World
Donate via PayPal


Copyright © 2004-2019, Karl L. Swartz. All rights reserved.
All trademarks mentioned herein belong to their respective owners.

Please see credits for attribution and copyright information.

Karl Swartz <karl@kls2.com>
  Powered by FreeBSD
Valid HTML 4.01!
Labeled with ICRA
hCard Microformat
Geo Microformat